createdAt,value
2023-08-17T00:02:00.116Z,95099.38
2023-08-17T00:04:26.979Z,95101.78
2023-08-17T00:06:53.730Z,95096.94
2023-08-17T00:09:23.256Z,95099.59
2023-08-17T00:11:50.035Z,95100.66
2023-08-17T00:14:16.705Z,95098.28
2023-08-17T00:16:43.417Z,95092.13
2023-08-17T00:19:10.183Z,95101.19
2023-08-17T00:21:39.062Z,95096.94
2023-08-17T00:24:06.005Z,95100.13
2023-08-17T00:26:35.084Z,95106.50
2023-08-17T00:29:03.964Z,95107.59
2023-08-17T00:31:30.797Z,95102.53
2023-08-17T00:34:02.313Z,95100.66
2023-08-17T00:36:31.356Z,95097.44
2023-08-17T00:39:00.788Z,95099.56
2023-08-17T00:41:29.742Z,95089.13
2023-08-17T00:43:56.444Z,95084.88
2023-08-17T00:46:24.320Z,95092.06
2023-08-17T00:48:51.648Z,95092.06
2023-08-17T00:51:21.786Z,95095.53
2023-08-17T00:53:48.600Z,95089.09
2023-08-17T00:56:17.614Z,95093.13
2023-08-17T00:58:44.563Z,95084.06
2023-08-17T01:01:13.550Z,95083.56
2023-08-17T01:03:42.017Z,95093.16
2023-08-17T01:06:08.856Z,95093.72
2023-08-17T01:08:35.593Z,95083.59
2023-08-17T01:11:47.368Z,95084.66
2023-08-17T01:14:26.409Z,95081.97
2023-08-17T01:17:02.506Z,95082.47
2023-08-17T01:19:29.388Z,95080.78
2023-08-17T01:22:01.217Z,95085.03
2023-08-17T01:24:28.010Z,95083.41
2023-08-17T01:26:54.830Z,95079.38
2023-08-17T01:29:23.826Z,95077.03
2023-08-17T01:32:11.287Z,95079.19
2023-08-17T01:34:41.480Z,95082.34
2023-08-17T01:37:08.811Z,95079.69
2023-08-17T01:39:39.583Z,95074.88
2023-08-17T01:42:06.413Z,95080.13
2023-08-17T01:44:33.140Z,95075.91
2023-08-17T01:47:02.212Z,95079.06
2023-08-17T01:49:28.907Z,95081.72
2023-08-17T01:51:55.647Z,95083.38
2023-08-17T01:54:25.575Z,95083.84
2023-08-17T01:56:52.313Z,95080.59
2023-08-17T01:59:18.987Z,95078.50
2023-08-17T02:01:47.860Z,95080.13
2023-08-17T02:04:16.827Z,95083.91
2023-08-17T02:06:45.710Z,95075.91
2023-08-17T02:09:14.711Z,95083.38
2023-08-17T02:11:43.531Z,95072.44
2023-08-17T02:14:10.318Z,95080.69
2023-08-17T02:16:37.055Z,95078.50
2023-08-17T02:19:05.990Z,95066.25
2023-08-17T02:21:32.662Z,95076.91
2023-08-17T02:24:01.496Z,95065.66
2023-08-17T02:26:28.252Z,95070.03
2023-08-17T02:28:54.980Z,95067.38
2023-08-17T02:31:21.771Z,95063.34
2023-08-17T02:33:50.655Z,95068.97
2023-08-17T02:36:19.928Z,95076.91
2023-08-17T02:38:47.568Z,95071.56
2023-08-17T02:41:14.302Z,95074.41
2023-08-17T02:43:40.953Z,95057.94
2023-08-17T02:46:09.814Z,95064.59
2023-08-17T02:48:36.569Z,95067.06
2023-08-17T02:51:03.364Z,95062.22
2023-08-17T02:53:30.147Z,95066.16
2023-08-17T02:55:59.707Z,95057.13
2023-08-17T02:58:26.425Z,95065.66
2023-08-17T03:00:55.496Z,95055.81
2023-08-17T03:03:22.289Z,95057.72
2023-08-17T03:05:49.092Z,95056.88
2023-08-17T03:08:15.864Z,95057.66
2023-08-17T03:10:44.717Z,95059.78
2023-08-17T03:13:11.585Z,95056.41
2023-08-17T03:15:41.158Z,95056.72
2023-08-17T03:18:08.152Z,95064.13
2023-08-17T03:20:37.090Z,95063.00
2023-08-17T03:23:07.301Z,95069.63
2023-08-17T03:25:37.377Z,95059.28
2023-08-17T03:28:04.484Z,95070.44
2023-08-17T03:30:33.447Z,95067.22
2023-08-17T03:33:00.252Z,95073.06
2023-08-17T03:35:26.948Z,95061.91
2023-08-17T03:37:54.677Z,95071.25
2023-08-17T03:40:21.383Z,95069.34
2023-08-17T03:42:48.091Z,95076.28
2023-08-17T03:45:14.854Z,95081.09
2023-08-17T03:47:43.719Z,95074.66
2023-08-17T03:50:13.207Z,95076.81
2023-08-17T03:52:39.952Z,95076.91
2023-08-17T03:55:08.455Z,95076.91
2023-08-17T03:57:36.480Z,95073.63
2023-08-17T04:00:09.093Z,95084.72
2023-08-17T04:02:35.905Z,95084.09
2023-08-17T04:05:03.483Z,95073.63
2023-08-17T04:07:32.607Z,95081.91
2023-08-17T04:10:01.564Z,95081.91
2023-08-17T04:12:28.403Z,95069.91
2023-08-17T04:14:55.176Z,95083.34
2023-08-17T04:17:22.867Z,95085.22
2023-08-17T04:19:49.711Z,95084.72
2023-08-17T04:22:16.444Z,95083.66
2023-08-17T04:24:43.159Z,95083.72
2023-08-17T04:27:12.280Z,95081.59
2023-08-17T04:29:39.187Z,95081.94
2023-08-17T04:32:06.056Z,95068.84
2023-08-17T04:34:32.812Z,95073.06
2023-08-17T04:36:59.532Z,95083.47
2023-08-17T04:39:27.138Z,95065.31
2023-08-17T04:41:58.499Z,95081.19
2023-08-17T04:44:27.385Z,95083.38
2023-08-17T04:46:54.130Z,95073.81
2023-08-17T04:49:20.877Z,95067.97
2023-08-17T04:51:47.603Z,95071.69
2023-08-17T04:54:14.283Z,95075.22
2023-08-17T04:56:43.540Z,95066.47
2023-08-17T04:59:12.921Z,95078.22
2023-08-17T05:01:42.256Z,95070.22
2023-08-17T05:04:11.668Z,95072.91
2023-08-17T05:06:40.704Z,95065.97
2023-08-17T05:09:07.849Z,95074.50
2023-08-17T05:11:36.828Z,95074.50
2023-08-17T05:14:04.264Z,95072.38
2023-08-17T05:16:33.263Z,95075.06
2023-08-17T05:19:00.724Z,95076.09
2023-08-17T05:21:30.113Z,95079.09
2023-08-17T05:23:57.627Z,95075.13
2023-08-17T05:26:24.518Z,95072.44
2023-08-17T05:28:51.243Z,95071.41
2023-08-17T05:31:18.019Z,95079.31
2023-08-17T05:33:45.236Z,95077.72
2023-08-17T05:36:12.301Z,95078.28
2023-08-17T05:38:41.328Z,95081.50
2023-08-17T05:41:10.934Z,95078.84
2023-08-17T05:43:37.745Z,95079.63
2023-08-17T05:46:05.125Z,95083.13
2023-08-17T05:48:50.724Z,95079.63
2023-08-17T05:51:17.558Z,95079.84
2023-08-17T05:53:44.369Z,95085.16
2023-08-17T05:56:11.088Z,95085.69
2023-08-17T05:58:37.770Z,95081.34
2023-08-17T06:01:10.326Z,95085.06
2023-08-17T06:03:38.388Z,95088.78
2023-08-17T06:06:07.877Z,95087.19
2023-08-17T06:08:34.786Z,95086.13
2023-08-17T06:11:06.736Z,95089.91
2023-08-17T06:13:36.815Z,95087.59
2023-08-17T06:16:03.958Z,95086.56
2023-08-17T06:18:31.078Z,95091.91
2023-08-17T06:21:00.219Z,95085.78
2023-08-17T06:23:29.239Z,95083.66
2023-08-17T06:25:59.922Z,95084.47
2023-08-17T06:28:29.455Z,95086.88
2023-08-17T06:30:56.632Z,95086.88
2023-08-17T06:33:23.571Z,95086.88
2023-08-17T06:35:50.699Z,95092.22
2023-08-17T06:38:18.120Z,95089.31
2023-08-17T06:40:46.102Z,95093.28
2023-08-17T06:43:12.903Z,95088.94
2023-08-17T06:45:39.644Z,95090.50
2023-08-17T06:48:07.006Z,95089.97
2023-08-17T06:50:33.764Z,95096.34
2023-08-17T06:53:02.760Z,95094.75
2023-08-17T06:55:32.013Z,95099.25
2023-08-17T06:57:59.562Z,95088.84
2023-08-17T07:00:26.400Z,95096.84
2023-08-17T07:02:55.379Z,95096.84
2023-08-17T07:05:23.853Z,95084.50
2023-08-17T07:07:54.173Z,95095.81
2023-08-17T07:10:21.171Z,95088.00
2023-08-17T07:12:47.862Z,95101.38
2023-08-17T07:15:14.607Z,95092.81
2023-08-17T07:17:43.456Z,95102.19
2023-08-17T07:22:42.193Z,95095.81
2023-08-17T07:25:10.175Z,95092.63
2023-08-17T07:27:37.024Z,95085.69
2023-08-17T07:30:04.213Z,95088.34
2023-08-17T07:32:31.020Z,95092.63
2023-08-17T07:34:57.804Z,95090.50
2023-08-17T07:37:34.134Z,95083.56
2023-08-17T07:40:01.834Z,95087.28
2023-08-17T07:42:28.681Z,95082.78
2023-08-17T07:44:55.578Z,95083.56
2023-08-17T07:47:22.272Z,95086.00
2023-08-17T07:49:51.169Z,95079.06
2023-08-17T07:52:17.853Z,95086.78
2023-08-17T07:54:44.814Z,95086.78
2023-08-17T07:57:11.827Z,95085.16
2023-08-17T07:59:38.640Z,95086.28
2023-08-17T08:02:05.440Z,95079.84
2023-08-17T08:04:32.140Z,95082.25
2023-08-17T08:06:59.004Z,95076.09
2023-08-17T08:09:25.726Z,95078.53
2023-08-17T08:11:52.535Z,95065.13
2023-08-17T08:14:21.601Z,95070.00
2023-08-17T08:16:50.577Z,95072.38
2023-08-17T08:19:17.533Z,95060.09
2023-08-17T08:21:44.210Z,95065.44
2023-08-17T08:24:22.181Z,95067.06
2023-08-17T08:27:00.061Z,95065.44
2023-08-17T08:29:26.806Z,95067.88
2023-08-17T08:31:54.137Z,95061.72
2023-08-17T08:34:23.017Z,95063.31
2023-08-17T08:36:51.918Z,95071.88
2023-08-17T08:39:19.691Z,95074.00
2023-08-17T08:41:46.397Z,95058.00
2023-08-17T08:44:13.079Z,95058.00
2023-08-17T08:46:42.020Z,95052.19
2023-08-17T08:49:09.894Z,95057.50
2023-08-17T08:51:36.560Z,95047.88
2023-08-17T08:54:06.599Z,95050.84
2023-08-17T08:56:34.265Z,95040.44
2023-08-17T08:59:02.904Z,95043.66
2023-08-17T09:01:33.874Z,95035.66
2023-08-17T09:04:01.938Z,95037.25
2023-08-17T09:06:29.065Z,95041.53
2023-08-17T09:08:56.001Z,95038.88
2023-08-17T09:11:22.686Z,95028.19
2023-08-17T09:13:53.730Z,95025.28
2023-08-17T09:16:22.311Z,95021.81
2023-08-17T09:18:50.378Z,95015.72
2023-08-17T09:21:26.077Z,95020.75
2023-08-17T09:23:59.100Z,95022.34
2023-08-17T09:26:26.283Z,95014.09
2023-08-17T09:28:55.236Z,95010.88
2023-08-17T09:31:24.845Z,95016.22
2023-08-17T09:33:54.480Z,95017.31
2023-08-17T09:36:27.126Z,94999.94
2023-08-17T09:38:54.391Z,94995.69
2023-08-17T09:41:21.331Z,95000.50
2023-08-17T09:43:48.458Z,94996.75
2023-08-17T09:46:17.925Z,94997.03
2023-08-17T09:48:45.716Z,94997.81
2023-08-17T09:51:15.043Z,94993.06
2023-08-17T09:53:44.282Z,94987.72
2023-08-17T09:58:43.283Z,94982.94
2023-08-17T10:01:10.117Z,94981.34
2023-08-17T10:03:39.144Z,94985.84
2023-08-17T10:06:08.089Z,94968.47
2023-08-17T10:08:40.775Z,94975.72
2023-08-17T10:11:10.174Z,94974.94
2023-08-17T10:13:59.090Z,94962.66
2023-08-17T10:16:31.660Z,94965.88
2023-08-17T10:19:29.410Z,94976.53
2023-08-17T10:22:10.162Z,94969.31
2023-08-17T10:24:37.563Z,94966.66
2023-08-17T10:27:07.769Z,94971.19
2023-08-17T10:29:37.145Z,94958.94
2023-08-17T10:32:06.065Z,94958.94
2023-08-17T10:34:35.043Z,94963.72
2023-08-17T10:37:04.383Z,94962.13
2023-08-17T10:39:31.966Z,94962.38
2023-08-17T10:41:59.295Z,94967.72
2023-08-17T10:44:38.299Z,94955.19
2023-08-17T10:47:27.112Z,94952.25
2023-08-17T10:50:03.052Z,94959.47
2023-08-17T10:52:36.680Z,94955.97
2023-08-17T10:55:08.231Z,94948.78
2023-08-17T10:57:40.708Z,94942.91
2023-08-17T11:00:35.720Z,94941.31
2023-08-17T11:03:06.778Z,94941.59
2023-08-17T11:05:47.411Z,94937.06
2023-08-17T11:08:35.484Z,94940.28
2023-08-17T11:11:10.803Z,94936.25
2023-08-17T11:13:45.872Z,94937.06
2023-08-17T11:16:16.028Z,94941.59
2023-08-17T11:18:47.628Z,94938.66
2023-08-17T11:21:19.404Z,94931.72
2023-08-17T11:23:46.798Z,94931.72
2023-08-17T11:26:16.770Z,94931.22
2023-08-17T11:28:45.902Z,94923.19
2023-08-17T11:31:14.013Z,94923.19
2023-08-17T11:33:41.193Z,94915.72
2023-08-17T11:36:09.523Z,94921.34
2023-08-17T11:38:41.343Z,94923.75
2023-08-17T11:41:10.414Z,94922.13
2023-08-17T11:43:39.475Z,94913.06
2023-08-17T11:46:06.932Z,94913.06
2023-08-17T11:51:06.110Z,94915.50
2023-08-17T11:53:36.748Z,94913.06
2023-08-17T11:56:06.695Z,94919.53
2023-08-17T11:58:47.719Z,94910.94
2023-08-17T12:01:17.169Z,94902.41
2023-08-17T12:03:44.681Z,94909.09
2023-08-17T12:06:11.963Z,94910.16
2023-08-17T12:08:38.709Z,94914.19
2023-08-17T12:11:05.951Z,94904.00
2023-08-17T12:13:36.118Z,94901.91
2023-08-17T12:16:03.281Z,94896.56
2023-08-17T12:18:31.789Z,94900.56
2023-08-17T12:20:58.521Z,94899.78
2023-08-17T12:23:25.295Z,94908.84
2023-08-17T12:25:56.204Z,94892.25
2023-08-17T12:28:23.506Z,94901.91
2023-08-17T12:30:58.332Z,94896.56
2023-08-17T12:33:25.042Z,94898.16
2023-08-17T12:35:51.781Z,94892.25
2023-08-17T12:38:18.989Z,94896.56
2023-08-17T12:40:47.851Z,94891.22
2023-08-17T12:43:15.977Z,94900.28
2023-08-17T12:45:42.986Z,94896.00
2023-08-17T12:48:09.829Z,94902.94
2023-08-17T12:50:43.475Z,94892.84
2023-08-17T12:53:10.785Z,94896.56
2023-08-17T12:55:37.562Z,94905.59
2023-08-17T12:58:04.627Z,94902.94
2023-08-17T13:00:31.308Z,94897.59
2023-08-17T13:02:58.058Z,94896.56
2023-08-17T13:05:24.864Z,94900.28
2023-08-17T13:07:51.718Z,94899.47
2023-08-17T13:10:20.853Z,94902.69
2023-08-17T13:12:49.682Z,94898.97
2023-08-17T13:15:16.491Z,94893.31
2023-08-17T13:17:43.839Z,94903.50
2023-08-17T13:20:11.662Z,94899.78
2023-08-17T13:22:38.420Z,94900.84
2023-08-17T13:25:08.267Z,94898.16
2023-08-17T13:27:37.130Z,94901.38
2023-08-17T13:30:04.121Z,94904.28
2023-08-17T13:32:33.550Z,94902.97
2023-08-17T13:35:02.501Z,94898.97
2023-08-17T13:37:29.561Z,94905.13
2023-08-17T13:39:56.748Z,94901.38
2023-08-17T13:42:25.945Z,94896.03
2023-08-17T13:44:54.897Z,94904.06
2023-08-17T13:47:21.694Z,94904.84
2023-08-17T13:49:50.608Z,94898.72
2023-08-17T13:52:17.259Z,94898.72
2023-08-17T13:54:46.824Z,94904.59
2023-08-17T13:57:13.591Z,94903.78
2023-08-17T13:59:40.319Z,94904.31
2023-08-17T14:02:07.433Z,94889.09
2023-08-17T14:04:34.094Z,94892.31
2023-08-17T14:07:00.743Z,94893.38
2023-08-17T14:09:27.479Z,94898.72
2023-08-17T14:11:56.485Z,94899.78
2023-08-17T14:14:23.320Z,94904.59
2023-08-17T14:16:50.030Z,94896.06
2023-08-17T14:19:16.760Z,94904.06
2023-08-17T14:21:43.465Z,94901.41
2023-08-17T14:24:10.811Z,94902.75
2023-08-17T14:26:37.561Z,94908.34
2023-08-17T14:29:04.611Z,94909.41
2023-08-17T14:31:33.604Z,94897.94
2023-08-17T14:34:06.188Z,94901.66
2023-08-17T14:36:33.370Z,94909.38
2023-08-17T14:39:00.140Z,94909.94
2023-08-17T14:41:32.559Z,94913.13
2023-08-17T14:44:03.472Z,94912.31
2023-08-17T14:46:30.657Z,94910.22
2023-08-17T14:49:00.788Z,94910.22
2023-08-17T14:51:32.021Z,94900.84
2023-08-17T14:53:59.042Z,94904.88
2023-08-17T14:56:25.871Z,94906.50
2023-08-17T14:58:52.588Z,94912.63
2023-08-17T15:01:21.593Z,94900.84
2023-08-17T15:03:50.716Z,94907.28
2023-08-17T15:06:32.331Z,94905.66
2023-08-17T15:09:01.406Z,94904.88
2023-08-17T15:11:28.205Z,94899.53
2023-08-17T15:13:54.927Z,94896.06
2023-08-17T15:16:28.999Z,94901.16
2023-08-17T15:18:58.736Z,94896.59
2023-08-17T15:21:25.578Z,94902.75
2023-08-17T15:23:52.312Z,94904.88
2023-08-17T15:26:19.098Z,94895.81
2023-08-17T15:28:45.882Z,94901.94
2023-08-17T15:31:17.526Z,94899.28
2023-08-17T15:33:44.513Z,94896.59
2023-08-17T15:36:11.387Z,94901.94
2023-08-17T15:38:38.561Z,94901.94
2023-08-17T15:41:08.034Z,94896.59
2023-08-17T15:43:36.935Z,94892.88
2023-08-17T15:46:06.761Z,94898.19
2023-08-17T15:48:33.569Z,94894.22
2023-08-17T15:51:00.323Z,94896.59
2023-08-17T15:53:27.066Z,94890.47
2023-08-17T15:55:53.801Z,94898.19
2023-08-17T15:58:20.584Z,94895.00
2023-08-17T16:00:47.321Z,94899.03
2023-08-17T16:03:15.481Z,94901.69
2023-08-17T16:05:42.376Z,94899.03
2023-08-17T16:08:11.671Z,94903.53
2023-08-17T16:10:38.497Z,94906.00
2023-08-17T16:13:07.555Z,94906.78
2023-08-17T16:15:34.229Z,94910.47
2023-08-17T16:18:01.806Z,94898.19
2023-08-17T16:20:34.670Z,94911.34
2023-08-17T16:23:04.105Z,94905.16
2023-08-17T16:25:32.742Z,94911.34
2023-08-17T16:28:02.193Z,94910.47
2023-08-17T16:30:28.971Z,94910.47
2023-08-17T16:32:55.808Z,94908.88
2023-08-17T16:35:22.978Z,94908.63
2023-08-17T16:37:49.808Z,94918.50
2023-08-17T16:40:31.951Z,94915.81
2023-08-17T16:43:06.148Z,94919.56
2023-08-17T16:45:32.913Z,94922.78
2023-08-17T16:47:59.753Z,94918.78
2023-08-17T16:50:33.128Z,94929.78
2023-08-17T16:53:00.471Z,94924.91
2023-08-17T16:55:27.313Z,94930.81
2023-08-17T16:57:58.264Z,94938.03
2023-08-17T17:00:27.319Z,94938.81
2023-08-17T17:02:56.442Z,94942.28
2023-08-17T17:05:23.314Z,94933.47
2023-08-17T17:07:50.027Z,94938.81
2023-08-17T17:10:18.861Z,94940.69
2023-08-17T17:12:45.596Z,94945.78
2023-08-17T17:15:14.446Z,94942.28
2023-08-17T17:17:41.315Z,94946.31
2023-08-17T17:20:08.918Z,94955.63
2023-08-17T17:22:35.704Z,94961.78
2023-08-17T17:25:05.056Z,94956.47
2023-08-17T17:27:32.006Z,94955.06
2023-08-17T17:29:58.774Z,94967.69
2023-08-17T17:32:25.502Z,94970.59
2023-08-17T17:34:52.340Z,94968.75
2023-08-17T17:37:21.109Z,94963.41
2023-08-17T17:39:48.485Z,94967.69
2023-08-17T17:42:17.515Z,94970.84
2023-08-17T17:44:47.160Z,94973.00
2023-08-17T17:47:16.034Z,94970.59
2023-08-17T17:49:43.106Z,94974.06
2023-08-17T17:52:12.285Z,94977.28
2023-08-17T17:54:41.321Z,94979.97
2023-08-17T17:57:11.182Z,94978.91
2023-08-17T17:59:40.150Z,94982.63
2023-08-17T18:02:06.997Z,94988.75
2023-08-17T18:04:35.876Z,94984.22
2023-08-17T18:07:05.975Z,94987.97
2023-08-17T18:09:36.218Z,94986.34
2023-08-17T18:12:03.956Z,94991.97
2023-08-17T18:14:33.889Z,95001.84
2023-08-17T18:17:00.831Z,94991.19
2023-08-17T18:19:28.116Z,94996.50
2023-08-17T18:21:57.844Z,94991.69
2023-08-17T18:24:24.672Z,94994.91
2023-08-17T18:26:51.391Z,95001.84
2023-08-17T18:29:18.047Z,95000.25
2023-08-17T18:31:47.056Z,95006.94
2023-08-17T18:34:16.525Z,95005.06
2023-08-17T18:36:45.419Z,95007.19
2023-08-17T18:39:12.193Z,95007.19
2023-08-17T18:41:41.119Z,95010.91
2023-08-17T18:44:07.856Z,95015.19
2023-08-17T18:46:34.810Z,95015.19
2023-08-17T18:49:03.737Z,95012.53
2023-08-17T18:51:30.584Z,95008.25
2023-08-17T18:53:57.417Z,95016.25
2023-08-17T18:56:24.195Z,95004.53
2023-08-17T18:58:53.299Z,95013.31
2023-08-17T19:01:20.034Z,95008.25
2023-08-17T19:03:47.212Z,95017.88
2023-08-17T19:06:16.784Z,95014.13
2023-08-17T19:08:43.450Z,95017.06
2023-08-17T19:11:10.282Z,95009.31
2023-08-17T19:13:39.174Z,95016.25
2023-08-17T19:16:08.088Z,95012.53
2023-08-17T19:18:37.038Z,95020.28
2023-08-17T19:21:04.605Z,95016.81
2023-08-17T19:23:33.485Z,95014.13
2023-08-17T19:26:00.462Z,95014.13
2023-08-17T19:28:27.292Z,95017.88
2023-08-17T19:30:54.058Z,95019.47
2023-08-17T19:33:20.815Z,95015.19
2023-08-17T19:35:50.468Z,95018.94
2023-08-17T19:38:19.533Z,95026.66
2023-08-17T19:40:47.854Z,95021.59
2023-08-17T19:43:14.852Z,95029.34
2023-08-17T19:45:42.278Z,95034.44
2023-08-17T19:48:09.422Z,95028.53
2023-08-17T19:50:36.177Z,95030.16
2023-08-17T19:53:02.908Z,95034.44
2023-08-17T19:55:29.632Z,95037.09
2023-08-17T19:57:56.560Z,95038.16
2023-08-17T20:00:25.557Z,95035.50
2023-08-17T20:02:54.719Z,95030.16
2023-08-17T20:05:21.527Z,95042.44
2023-08-17T20:07:48.378Z,95026.41
2023-08-17T20:10:15.374Z,95035.50
2023-08-17T20:12:44.406Z,95030.66
2023-08-17T20:15:11.499Z,95036.31
2023-08-17T20:17:38.512Z,95040.31
2023-08-17T20:20:09.102Z,95037.91
2023-08-17T20:22:36.004Z,95034.44
2023-08-17T20:25:05.027Z,95030.69
2023-08-17T20:27:33.976Z,95038.69
2023-08-17T20:30:03.659Z,95034.97
2023-08-17T20:32:32.786Z,95026.41
2023-08-17T20:35:01.740Z,95032.56
2023-08-17T20:37:29.173Z,95040.31
2023-08-17T20:39:56.341Z,95030.69
2023-08-17T20:42:23.052Z,95033.38
2023-08-17T20:44:49.871Z,95034.97
2023-08-17T20:47:16.685Z,95031.50
2023-08-17T20:49:43.930Z,95033.38
2023-08-17T20:52:11.898Z,95034.66
2023-08-17T20:54:38.710Z,95044.84
2023-08-17T20:57:05.686Z,95035.25
2023-08-17T20:59:33.070Z,95031.75
2023-08-17T21:01:59.893Z,95040.31
2023-08-17T21:04:26.668Z,95039.53
2023-08-17T21:06:55.640Z,95042.97
2023-08-17T21:09:22.374Z,95036.03
2023-08-17T21:11:49.112Z,95044.59
2023-08-17T21:14:15.910Z,95051.81
2023-08-17T21:16:45.068Z,95048.31
2023-08-17T21:19:11.937Z,95051.81
2023-08-17T21:21:39.260Z,95053.66
2023-08-17T21:24:06.141Z,95056.31
2023-08-17T21:26:32.987Z,95057.94
2023-08-17T21:28:59.781Z,95064.34
2023-08-17T21:31:26.539Z,95061.66
2023-08-17T21:33:53.353Z,95057.94
2023-08-17T21:36:22.243Z,95056.31
2023-08-17T21:38:49.024Z,95067.00
2023-08-17T21:41:15.836Z,95067.81
2023-08-17T21:43:42.624Z,95060.06
2023-08-17T21:46:09.341Z,95065.94
2023-08-17T21:48:38.347Z,95068.59
2023-08-17T21:51:06.021Z,95065.41
2023-08-17T21:53:32.996Z,95071.28
2023-08-17T21:55:59.730Z,95069.44
2023-08-17T21:58:28.604Z,95062.47
2023-08-17T22:00:55.338Z,95066.75
2023-08-17T22:03:22.185Z,95073.16
2023-08-17T22:05:49.022Z,95067.00
2023-08-17T22:08:15.831Z,95072.34
2023-08-17T22:10:45.366Z,95071.56
2023-08-17T22:13:12.318Z,95068.59
2023-08-17T22:15:41.624Z,95070.72
2023-08-17T22:18:08.524Z,95067.00
2023-08-17T22:20:36.107Z,95063.28
2023-08-17T22:23:05.125Z,95066.22
2023-08-17T22:25:32.101Z,95076.06
2023-08-17T22:27:58.950Z,95065.41
2023-08-17T22:30:28.674Z,95071.56
2023-08-17T22:32:55.557Z,95083.84
2023-08-17T22:35:25.051Z,95082.22
2023-08-17T22:37:53.200Z,95081.41
2023-08-17T22:40:22.219Z,95090.47
2023-08-17T22:42:48.979Z,95091.31
2023-08-17T22:45:15.928Z,95095.03
2023-08-17T22:47:42.718Z,95100.63
2023-08-17T22:50:10.093Z,95104.34
2023-08-17T22:52:39.681Z,95104.06
2023-08-17T22:55:09.731Z,95096.59
2023-08-17T22:57:36.472Z,95100.84
2023-08-17T23:00:03.604Z,95107.00
2023-08-17T23:02:30.403Z,95099.53
2023-08-17T23:04:59.279Z,95108.63
2023-08-17T23:07:26.049Z,95105.41
2023-08-17T23:09:52.898Z,95109.94
2023-08-17T23:12:19.617Z,95103.81
2023-08-17T23:14:48.494Z,95099.53
2023-08-17T23:17:33.708Z,95108.59
2023-08-17T23:20:00.444Z,95104.88
2023-08-17T23:22:27.307Z,95095.25
2023-08-17T23:24:54.010Z,95100.06
2023-08-17T23:27:20.761Z,95089.38
2023-08-17T23:29:47.562Z,95096.84
2023-08-17T23:32:26.896Z,95086.63
2023-08-17T23:34:55.057Z,95092.06
2023-08-17T23:37:23.934Z,95095.78
2023-08-17T23:39:51.244Z,95095.53
2023-08-17T23:42:20.076Z,95101.41
2023-08-17T23:44:51.464Z,95095.25
2023-08-17T23:47:18.160Z,95096.84
2023-08-17T23:49:47.063Z,95105.91
2023-08-17T23:52:13.785Z,95098.16
2023-08-17T23:54:42.802Z,95101.84
2023-08-17T23:57:09.573Z,95096.28
2023-08-17T23:59:36.362Z,95101.84
